sensor_id;sensor_type;location;lat;lon;timestamp;P1;durP1;ratioP1;P2;durP2;ratioP2
71183;SDS011;58887;51.980;4.464;2022-11-20T00:00:25;8.54;;;8.45;;
71183;SDS011;58887;51.980;4.464;2022-11-20T00:02:51;8.70;;;8.53;;
71183;SDS011;58887;51.980;4.464;2022-11-20T00:05:16;8.58;;;8.35;;
71183;SDS011;58887;51.980;4.464;2022-11-20T00:07:42;8.67;;;8.45;;
71183;SDS011;58887;51.980;4.464;2022-11-20T00:10:07;9.12;;;8.98;;
71183;SDS011;58887;51.980;4.464;2022-11-20T00:12:33;8.99;;;8.89;;
71183;SDS011;58887;51.980;4.464;2022-11-20T00:14:59;9.18;;;9.11;;
71183;SDS011;58887;51.980;4.464;2022-11-20T00:17:24;9.52;;;9.38;;
71183;SDS011;58887;51.980;4.464;2022-11-20T00:19:49;10.10;;;9.95;;
71183;SDS011;58887;51.980;4.464;2022-11-20T00:22:15;9.81;;;9.60;;
71183;SDS011;58887;51.980;4.464;2022-11-20T00:24:40;9.42;;;9.26;;
71183;SDS011;58887;51.980;4.464;2022-11-20T00:27:06;9.03;;;8.88;;
71183;SDS011;58887;51.980;4.464;2022-11-20T00:29:31;8.32;;;8.24;;
71183;SDS011;58887;51.980;4.464;2022-11-20T00:31:57;9.16;;;8.96;;
71183;SDS011;58887;51.980;4.464;2022-11-20T00:34:22;8.94;;;8.80;;
71183;SDS011;58887;51.980;4.464;2022-11-20T00:36:47;8.72;;;8.61;;
71183;SDS011;58887;51.980;4.464;2022-11-20T00:39:13;8.76;;;8.62;;
71183;SDS011;58887;51.980;4.464;2022-11-20T00:41:38;8.85;;;8.77;;
71183;SDS011;58887;51.980;4.464;2022-11-20T00:44:04;8.76;;;8.64;;
71183;SDS011;58887;51.980;4.464;2022-11-20T00:46:29;8.83;;;8.73;;
71183;SDS011;58887;51.980;4.464;2022-11-20T00:48:55;8.73;;;8.68;;
71183;SDS011;58887;51.980;4.464;2022-11-20T00:51:21;8.37;;;8.35;;
71183;SDS011;58887;51.980;4.464;2022-11-20T00:53:50;8.37;;;8.32;;
71183;SDS011;58887;51.980;4.464;2022-11-20T00:56:16;8.29;;;8.25;;
71183;SDS011;58887;51.980;4.464;2022-11-20T00:58:43;8.50;;;8.37;;
71183;SDS011;58887;51.980;4.464;2022-11-20T01:01:12;8.23;;;8.12;;
71183;SDS011;58887;51.980;4.464;2022-11-20T01:03:43;8.52;;;8.40;;
71183;SDS011;58887;51.980;4.464;2022-11-20T01:06:16;8.60;;;8.52;;
71183;SDS011;58887;51.980;4.464;2022-11-20T01:08:43;8.83;;;8.74;;
71183;SDS011;58887;51.980;4.464;2022-11-20T01:11:10;9.14;;;9.01;;
71183;SDS011;58887;51.980;4.464;2022-11-20T01:13:39;9.13;;;8.97;;
71183;SDS011;58887;51.980;4.464;2022-11-20T01:16:13;8.63;;;8.58;;
71183;SDS011;58887;51.980;4.464;2022-11-20T01:18:42;8.88;;;8.80;;
71183;SDS011;58887;51.980;4.464;2022-11-20T01:21:10;9.49;;;9.32;;
71183;SDS011;58887;51.980;4.464;2022-11-20T01:23:39;9.52;;;9.35;;
71183;SDS011;58887;51.980;4.464;2022-11-20T01:26:07;9.01;;;8.81;;
71183;SDS011;58887;51.980;4.464;2022-11-20T01:28:35;8.99;;;8.87;;
71183;SDS011;58887;51.980;4.464;2022-11-20T01:31:01;8.82;;;8.63;;
71183;SDS011;58887;51.980;4.464;2022-11-20T01:33:43;9.00;;;8.82;;
71183;SDS011;58887;51.980;4.464;2022-11-20T01:36:10;9.05;;;8.86;;
71183;SDS011;58887;51.980;4.464;2022-11-20T01:38:36;8.48;;;8.38;;
71183;SDS011;58887;51.980;4.464;2022-11-20T01:41:02;8.38;;;8.33;;
71183;SDS011;58887;51.980;4.464;2022-11-20T01:43:28;8.08;;;8.02;;
71183;SDS011;58887;51.980;4.464;2022-11-20T01:46:01;8.44;;;8.32;;
71183;SDS011;58887;51.980;4.464;2022-11-20T01:48:40;8.24;;;8.18;;
71183;SDS011;58887;51.980;4.464;2022-11-20T01:51:17;8.64;;;8.57;;
71183;SDS011;58887;51.980;4.464;2022-11-20T01:53:51;8.31;;;8.16;;
71183;SDS011;58887;51.980;4.464;2022-11-20T01:56:20;8.65;;;8.58;;
71183;SDS011;58887;51.980;4.464;2022-11-20T01:58:49;9.03;;;8.89;;
71183;SDS011;58887;51.980;4.464;2022-11-20T02:01:20;8.93;;;8.76;;
71183;SDS011;58887;51.980;4.464;2022-11-20T02:03:46;8.79;;;8.63;;
71183;SDS011;58887;51.980;4.464;2022-11-20T02:08:42;9.08;;;8.95;;
71183;SDS011;58887;51.980;4.464;2022-11-20T02:11:08;8.93;;;8.84;;
71183;SDS011;58887;51.980;4.464;2022-11-20T02:13:34;8.70;;;8.59;;
71183;SDS011;58887;51.980;4.464;2022-11-20T02:18:50;9.13;;;9.02;;
71183;SDS011;58887;51.980;4.464;2022-11-20T02:24:11;9.47;;;9.29;;
71183;SDS011;58887;51.980;4.464;2022-11-20T02:27:14;9.12;;;8.96;;
71183;SDS011;58887;51.980;4.464;2022-11-20T02:29:50;9.34;;;9.08;;
71183;SDS011;58887;51.980;4.464;2022-11-20T02:32:37;9.45;;;9.27;;
71183;SDS011;58887;51.980;4.464;2022-11-20T02:37:34;9.34;;;9.21;;
71183;SDS011;58887;51.980;4.464;2022-11-20T02:40:03;9.23;;;9.18;;
71183;SDS011;58887;51.980;4.464;2022-11-20T02:42:29;9.13;;;8.99;;
71183;SDS011;58887;51.980;4.464;2022-11-20T02:44:55;9.15;;;9.02;;
71183;SDS011;58887;51.980;4.464;2022-11-20T02:47:20;9.91;;;9.78;;
71183;SDS011;58887;51.980;4.464;2022-11-20T02:49:46;9.30;;;9.18;;
71183;SDS011;58887;51.980;4.464;2022-11-20T02:52:11;9.64;;;9.49;;
71183;SDS011;58887;51.980;4.464;2022-11-20T02:54:37;9.83;;;9.77;;
71183;SDS011;58887;51.980;4.464;2022-11-20T02:57:02;9.91;;;9.73;;
71183;SDS011;58887;51.980;4.464;2022-11-20T02:59:28;9.48;;;9.26;;
71183;SDS011;58887;51.980;4.464;2022-11-20T03:01:53;9.75;;;9.55;;
71183;SDS011;58887;51.980;4.464;2022-11-20T03:04:18;9.16;;;9.03;;
71183;SDS011;58887;51.980;4.464;2022-11-20T03:06:44;9.12;;;9.06;;
71183;SDS011;58887;51.980;4.464;2022-11-20T03:09:10;9.32;;;9.24;;
71183;SDS011;58887;51.980;4.464;2022-11-20T03:11:36;8.72;;;8.62;;
71183;SDS011;58887;51.980;4.464;2022-11-20T03:14:02;9.71;;;9.55;;
71183;SDS011;58887;51.980;4.464;2022-11-20T03:16:30;9.58;;;9.41;;
71183;SDS011;58887;51.980;4.464;2022-11-20T03:18:56;9.40;;;9.30;;
71183;SDS011;58887;51.980;4.464;2022-11-20T03:21:22;9.47;;;9.39;;
71183;SDS011;58887;51.980;4.464;2022-11-20T03:23:47;9.36;;;9.26;;
71183;SDS011;58887;51.980;4.464;2022-11-20T03:26:17;9.49;;;9.40;;
71183;SDS011;58887;51.980;4.464;2022-11-20T03:28:50;9.32;;;9.20;;
71183;SDS011;58887;51.980;4.464;2022-11-20T03:31:26;9.45;;;9.35;;
71183;SDS011;58887;51.980;4.464;2022-11-20T03:33:56;9.64;;;9.44;;
71183;SDS011;58887;51.980;4.464;2022-11-20T03:36:23;9.11;;;8.99;;
71183;SDS011;58887;51.980;4.464;2022-11-20T03:38:48;9.12;;;8.99;;
71183;SDS011;58887;51.980;4.464;2022-11-20T03:41:15;8.89;;;8.80;;
71183;SDS011;58887;51.980;4.464;2022-11-20T03:43:48;9.12;;;8.98;;
71183;SDS011;58887;51.980;4.464;2022-11-20T03:46:15;9.26;;;9.14;;
71183;SDS011;58887;51.980;4.464;2022-11-20T03:48:40;9.18;;;9.04;;
71183;SDS011;58887;51.980;4.464;2022-11-20T03:51:10;9.64;;;9.53;;
71183;SDS011;58887;51.980;4.464;2022-11-20T03:53:41;9.32;;;9.22;;
71183;SDS011;58887;51.980;4.464;2022-11-20T03:56:08;9.06;;;8.96;;
71183;SDS011;58887;51.980;4.464;2022-11-20T03:58:36;9.07;;;8.89;;
71183;SDS011;58887;51.980;4.464;2022-11-20T04:01:05;9.66;;;9.50;;
71183;SDS011;58887;51.980;4.464;2022-11-20T04:03:52;9.31;;;9.11;;
71183;SDS011;58887;51.980;4.464;2022-11-20T04:06:21;9.37;;;9.23;;
71183;SDS011;58887;51.980;4.464;2022-11-20T04:08:51;9.01;;;8.85;;
71183;SDS011;58887;51.980;4.464;2022-11-20T04:13:55;9.66;;;9.43;;
71183;SDS011;58887;51.980;4.464;2022-11-20T04:16:23;9.41;;;9.24;;
71183;SDS011;58887;51.980;4.464;2022-11-20T04:18:53;9.76;;;9.53;;
71183;SDS011;58887;51.980;4.464;2022-11-20T04:21:20;9.50;;;9.29;;
71183;SDS011;58887;51.980;4.464;2022-11-20T04:23:47;9.14;;;9.09;;
71183;SDS011;58887;51.980;4.464;2022-11-20T04:26:12;9.08;;;9.03;;
71183;SDS011;58887;51.980;4.464;2022-11-20T04:28:38;9.30;;;9.18;;
71183;SDS011;58887;51.980;4.464;2022-11-20T04:31:08;9.06;;;8.95;;
71183;SDS011;58887;51.980;4.464;2022-11-20T04:33:36;9.82;;;9.70;;
71183;SDS011;58887;51.980;4.464;2022-11-20T04:36:24;9.46;;;9.28;;
71183;SDS011;58887;51.980;4.464;2022-11-20T04:39:07;9.66;;;9.45;;
71183;SDS011;58887;51.980;4.464;2022-11-20T04:41:36;9.40;;;9.20;;
71183;SDS011;58887;51.980;4.464;2022-11-20T04:44:02;9.86;;;9.66;;
71183;SDS011;58887;51.980;4.464;2022-11-20T04:46:31;9.61;;;9.48;;
71183;SDS011;58887;51.980;4.464;2022-11-20T04:49:00;9.48;;;9.27;;
71183;SDS011;58887;51.980;4.464;2022-11-20T04:51:26;9.38;;;9.24;;
71183;SDS011;58887;51.980;4.464;2022-11-20T04:53:51;9.36;;;9.27;;
71183;SDS011;58887;51.980;4.464;2022-11-20T04:56:17;9.40;;;9.30;;
71183;SDS011;58887;51.980;4.464;2022-11-20T04:58:42;9.26;;;9.23;;
71183;SDS011;58887;51.980;4.464;2022-11-20T05:03:38;9.85;;;9.63;;
71183;SDS011;58887;51.980;4.464;2022-11-20T05:06:05;9.91;;;9.78;;
71183;SDS011;58887;51.980;4.464;2022-11-20T05:08:31;10.12;;;9.96;;
71183;SDS011;58887;51.980;4.464;2022-11-20T05:11:05;9.29;;;9.16;;
71183;SDS011;58887;51.980;4.464;2022-11-20T05:13:32;9.52;;;9.36;;
71183;SDS011;58887;51.980;4.464;2022-11-20T05:16:05;9.43;;;9.34;;
71183;SDS011;58887;51.980;4.464;2022-11-20T05:18:33;8.97;;;8.86;;
71183;SDS011;58887;51.980;4.464;2022-11-20T05:21:00;9.74;;;9.56;;
71183;SDS011;58887;51.980;4.464;2022-11-20T05:23:25;9.77;;;9.60;;
71183;SDS011;58887;51.980;4.464;2022-11-20T05:25:52;9.31;;;9.16;;
71183;SDS011;58887;51.980;4.464;2022-11-20T05:28:19;9.39;;;9.22;;
71183;SDS011;58887;51.980;4.464;2022-11-20T05:30:45;9.46;;;9.35;;
71183;SDS011;58887;51.980;4.464;2022-11-20T05:33:10;9.32;;;9.14;;
71183;SDS011;58887;51.980;4.464;2022-11-20T05:35:36;9.38;;;9.28;;
71183;SDS011;58887;51.980;4.464;2022-11-20T05:38:01;9.44;;;9.34;;
71183;SDS011;58887;51.980;4.464;2022-11-20T05:40:27;9.18;;;9.07;;
71183;SDS011;58887;51.980;4.464;2022-11-20T05:42:52;9.34;;;9.29;;
71183;SDS011;58887;51.980;4.464;2022-11-20T05:45:18;9.33;;;9.25;;
71183;SDS011;58887;51.980;4.464;2022-11-20T05:47:43;10.20;;;10.05;;
71183;SDS011;58887;51.980;4.464;2022-11-20T05:50:09;9.96;;;9.74;;
71183;SDS011;58887;51.980;4.464;2022-11-20T05:52:34;9.72;;;9.52;;
71183;SDS011;58887;51.980;4.464;2022-11-20T05:55:00;10.39;;;10.21;;
71183;SDS011;58887;51.980;4.464;2022-11-20T05:57:25;9.68;;;9.50;;
71183;SDS011;58887;51.980;4.464;2022-11-20T05:59:51;10.26;;;10.03;;
71183;SDS011;58887;51.980;4.464;2022-11-20T06:02:16;9.62;;;9.39;;
71183;SDS011;58887;51.980;4.464;2022-11-20T06:04:42;9.23;;;9.12;;
71183;SDS011;58887;51.980;4.464;2022-11-20T06:07:07;9.31;;;9.18;;
71183;SDS011;58887;51.980;4.464;2022-11-20T06:09:32;9.71;;;9.61;;
71183;SDS011;58887;51.980;4.464;2022-11-20T06:11:58;10.34;;;10.25;;
71183;SDS011;58887;51.980;4.464;2022-11-20T06:14:23;9.73;;;9.61;;
71183;SDS011;58887;51.980;4.464;2022-11-20T06:16:49;10.39;;;10.25;;
71183;SDS011;58887;51.980;4.464;2022-11-20T06:19:14;10.03;;;9.90;;
71183;SDS011;58887;51.980;4.464;2022-11-20T06:21:40;9.73;;;9.60;;
71183;SDS011;58887;51.980;4.464;2022-11-20T06:24:06;10.43;;;10.30;;
71183;SDS011;58887;51.980;4.464;2022-11-20T06:26:33;9.82;;;9.68;;
71183;SDS011;58887;51.980;4.464;2022-11-20T06:28:59;10.61;;;10.46;;
71183;SDS011;58887;51.980;4.464;2022-11-20T06:31:24;10.26;;;10.12;;
71183;SDS011;58887;51.980;4.464;2022-11-20T06:33:51;9.99;;;9.82;;
71183;SDS011;58887;51.980;4.464;2022-11-20T06:36:18;10.16;;;10.03;;
71183;SDS011;58887;51.980;4.464;2022-11-20T06:38:46;11.00;;;10.70;;
71183;SDS011;58887;51.980;4.464;2022-11-20T06:41:16;9.84;;;9.68;;
71183;SDS011;58887;51.980;4.464;2022-11-20T06:43:44;10.58;;;10.37;;
71183;SDS011;58887;51.980;4.464;2022-11-20T06:46:10;10.85;;;10.45;;
71183;SDS011;58887;51.980;4.464;2022-11-20T06:48:37;10.47;;;10.33;;
71183;SDS011;58887;51.980;4.464;2022-11-20T06:51:04;10.38;;;10.26;;
71183;SDS011;58887;51.980;4.464;2022-11-20T06:53:30;9.77;;;9.67;;
71183;SDS011;58887;51.980;4.464;2022-11-20T06:55:56;10.21;;;10.10;;
71183;SDS011;58887;51.980;4.464;2022-11-20T06:58:23;10.14;;;9.97;;
71183;SDS011;58887;51.980;4.464;2022-11-20T07:00:50;10.40;;;10.14;;
71183;SDS011;58887;51.980;4.464;2022-11-20T07:03:16;10.35;;;10.22;;
71183;SDS011;58887;51.980;4.464;2022-11-20T07:05:41;10.83;;;10.57;;
71183;SDS011;58887;51.980;4.464;2022-11-20T07:08:07;10.93;;;10.72;;
71183;SDS011;58887;51.980;4.464;2022-11-20T07:10:33;10.65;;;10.42;;
71183;SDS011;58887;51.980;4.464;2022-11-20T07:12:59;10.41;;;10.26;;
71183;SDS011;58887;51.980;4.464;2022-11-20T07:15:25;10.54;;;10.37;;
71183;SDS011;58887;51.980;4.464;2022-11-20T07:17:50;10.77;;;10.59;;
71183;SDS011;58887;51.980;4.464;2022-11-20T07:20:17;10.51;;;10.31;;
71183;SDS011;58887;51.980;4.464;2022-11-20T07:22:42;10.32;;;10.14;;
71183;SDS011;58887;51.980;4.464;2022-11-20T07:25:08;10.86;;;10.75;;
71183;SDS011;58887;51.980;4.464;2022-11-20T07:27:35;11.18;;;11.06;;
71183;SDS011;58887;51.980;4.464;2022-11-20T07:30:01;10.66;;;10.45;;
71183;SDS011;58887;51.980;4.464;2022-11-20T07:32:27;11.61;;;11.33;;
71183;SDS011;58887;51.980;4.464;2022-11-20T07:34:53;11.13;;;10.91;;
71183;SDS011;58887;51.980;4.464;2022-11-20T07:37:18;10.81;;;10.69;;
71183;SDS011;58887;51.980;4.464;2022-11-20T07:39:44;11.13;;;10.94;;
71183;SDS011;58887;51.980;4.464;2022-11-20T07:42:09;11.30;;;11.00;;
71183;SDS011;58887;51.980;4.464;2022-11-20T07:44:37;10.98;;;10.85;;
71183;SDS011;58887;51.980;4.464;2022-11-20T07:47:03;10.78;;;10.58;;
71183;SDS011;58887;51.980;4.464;2022-11-20T07:49:29;10.98;;;10.84;;
71183;SDS011;58887;51.980;4.464;2022-11-20T07:51:54;11.97;;;11.80;;
71183;SDS011;58887;51.980;4.464;2022-11-20T07:54:20;11.13;;;10.87;;
71183;SDS011;58887;51.980;4.464;2022-11-20T07:56:47;11.33;;;11.21;;
71183;SDS011;58887;51.980;4.464;2022-11-20T07:59:13;12.66;;;12.44;;
71183;SDS011;58887;51.980;4.464;2022-11-20T08:01:39;11.02;;;10.92;;
71183;SDS011;58887;51.980;4.464;2022-11-20T08:04:05;10.92;;;10.86;;
71183;SDS011;58887;51.980;4.464;2022-11-20T08:06:31;10.74;;;10.71;;
71183;SDS011;58887;51.980;4.464;2022-11-20T08:08:57;11.40;;;11.25;;
71183;SDS011;58887;51.980;4.464;2022-11-20T08:11:22;11.45;;;11.23;;
71183;SDS011;58887;51.980;4.464;2022-11-20T08:14:06;11.41;;;11.24;;
71183;SDS011;58887;51.980;4.464;2022-11-20T08:16:38;11.62;;;11.47;;
71183;SDS011;58887;51.980;4.464;2022-11-20T08:19:04;12.05;;;11.71;;
71183;SDS011;58887;51.980;4.464;2022-11-20T08:21:30;11.69;;;11.43;;
71183;SDS011;58887;51.980;4.464;2022-11-20T08:23:56;13.10;;;12.87;;
71183;SDS011;58887;51.980;4.464;2022-11-20T08:26:23;14.33;;;14.06;;
71183;SDS011;58887;51.980;4.464;2022-11-20T08:28:48;12.87;;;12.57;;
71183;SDS011;58887;51.980;4.464;2022-11-20T08:31:14;11.08;;;10.96;;
71183;SDS011;58887;51.980;4.464;2022-11-20T08:33:39;11.11;;;11.03;;
71183;SDS011;58887;51.980;4.464;2022-11-20T08:36:05;11.09;;;11.00;;
71183;SDS011;58887;51.980;4.464;2022-11-20T08:38:31;14.25;;;14.04;;
71183;SDS011;58887;51.980;4.464;2022-11-20T08:41:01;12.83;;;12.67;;
71183;SDS011;58887;51.980;4.464;2022-11-20T08:43:46;14.20;;;13.95;;
71183;SDS011;58887;51.980;4.464;2022-11-20T08:46:12;13.58;;;13.39;;
71183;SDS011;58887;51.980;4.464;2022-11-20T08:48:37;13.17;;;12.94;;
71183;SDS011;58887;51.980;4.464;2022-11-20T08:51:03;13.81;;;13.57;;
71183;SDS011;58887;51.980;4.464;2022-11-20T08:53:28;13.04;;;12.78;;
71183;SDS011;58887;51.980;4.464;2022-11-20T08:55:54;12.33;;;12.20;;
71183;SDS011;58887;51.980;4.464;2022-11-20T08:58:19;12.23;;;12.14;;
71183;SDS011;58887;51.980;4.464;2022-11-20T09:00:45;11.61;;;11.50;;
71183;SDS011;58887;51.980;4.464;2022-11-20T09:03:10;11.63;;;11.48;;
71183;SDS011;58887;51.980;4.464;2022-11-20T09:05:37;11.83;;;11.72;;
71183;SDS011;58887;51.980;4.464;2022-11-20T09:08:02;11.67;;;11.56;;
71183;SDS011;58887;51.980;4.464;2022-11-20T09:10:28;12.34;;;12.20;;
71183;SDS011;58887;51.980;4.464;2022-11-20T09:12:54;12.10;;;11.90;;
71183;SDS011;58887;51.980;4.464;2022-11-20T09:15:20;12.09;;;11.89;;
71183;SDS011;58887;51.980;4.464;2022-11-20T09:17:55;12.11;;;11.98;;
71183;SDS011;58887;51.980;4.464;2022-11-20T09:20:26;12.41;;;12.13;;
71183;SDS011;58887;51.980;4.464;2022-11-20T09:22:59;12.79;;;12.59;;
71183;SDS011;58887;51.980;4.464;2022-11-20T09:25:24;12.14;;;11.89;;
71183;SDS011;58887;51.980;4.464;2022-11-20T09:27:56;12.82;;;12.53;;
71183;SDS011;58887;51.980;4.464;2022-11-20T09:30:23;12.22;;;12.09;;
71183;SDS011;58887;51.980;4.464;2022-11-20T09:32:49;12.71;;;12.45;;
71183;SDS011;58887;51.980;4.464;2022-11-20T09:35:15;13.22;;;12.93;;
71183;SDS011;58887;51.980;4.464;2022-11-20T09:37:40;12.82;;;12.61;;
71183;SDS011;58887;51.980;4.464;2022-11-20T09:40:06;13.96;;;13.59;;
71183;SDS011;58887;51.980;4.464;2022-11-20T09:42:46;14.80;;;14.55;;
71183;SDS011;58887;51.980;4.464;2022-11-20T09:55:36;13.92;;;13.72;;
71183;SDS011;58887;51.980;4.464;2022-11-20T09:58:05;13.78;;;13.58;;
71183;SDS011;58887;51.980;4.464;2022-11-20T10:00:32;13.72;;;13.44;;
71183;SDS011;58887;51.980;4.464;2022-11-20T10:03:18;13.84;;;13.43;;
71183;SDS011;58887;51.980;4.464;2022-11-20T10:05:57;13.69;;;13.47;;
71183;SDS011;58887;51.980;4.464;2022-11-20T10:08:39;13.62;;;13.41;;
71183;SDS011;58887;51.980;4.464;2022-11-20T10:11:13;13.54;;;13.33;;
71183;SDS011;58887;51.980;4.464;2022-11-20T10:16:37;14.55;;;14.32;;
71183;SDS011;58887;51.980;4.464;2022-11-20T10:19:20;13.72;;;13.52;;
71183;SDS011;58887;51.980;4.464;2022-11-20T10:21:59;14.03;;;13.83;;
71183;SDS011;58887;51.980;4.464;2022-11-20T10:24:56;14.09;;;13.80;;
71183;SDS011;58887;51.980;4.464;2022-11-20T10:30:15;13.49;;;13.30;;
71183;SDS011;58887;51.980;4.464;2022-11-20T10:32:47;13.91;;;13.60;;
71183;SDS011;58887;51.980;4.464;2022-11-20T10:35:38;13.69;;;13.49;;
71183;SDS011;58887;51.980;4.464;2022-11-20T10:38:18;13.79;;;13.47;;
71183;SDS011;58887;51.980;4.464;2022-11-20T10:40:59;14.50;;;14.19;;
71183;SDS011;58887;51.980;4.464;2022-11-20T10:43:46;14.32;;;13.99;;
71183;SDS011;58887;51.980;4.464;2022-11-20T10:46:20;16.24;;;15.92;;
71183;SDS011;58887;51.980;4.464;2022-11-20T10:48:48;13.70;;;13.44;;
71183;SDS011;58887;51.980;4.464;2022-11-20T10:51:21;13.57;;;13.38;;
71183;SDS011;58887;51.980;4.464;2022-11-20T10:56:38;12.98;;;12.79;;
71183;SDS011;58887;51.980;4.464;2022-11-20T11:01:43;13.47;;;13.20;;
71183;SDS011;58887;51.980;4.464;2022-11-20T11:04:54;13.44;;;13.22;;
71183;SDS011;58887;51.980;4.464;2022-11-20T11:07:09;13.55;;;13.35;;
71183;SDS011;58887;51.980;4.464;2022-11-20T11:09:39;13.90;;;13.72;;
71183;SDS011;58887;51.980;4.464;2022-11-20T11:12:09;13.65;;;13.37;;
71183;SDS011;58887;51.980;4.464;2022-11-20T11:14:43;13.76;;;13.52;;
71183;SDS011;58887;51.980;4.464;2022-11-20T11:17:18;13.81;;;13.47;;
71183;SDS011;58887;51.980;4.464;2022-11-20T11:19:45;13.90;;;13.61;;
71183;SDS011;58887;51.980;4.464;2022-11-20T11:22:16;13.89;;;13.78;;
71183;SDS011;58887;51.980;4.464;2022-11-20T11:24:51;13.80;;;13.63;;
71183;SDS011;58887;51.980;4.464;2022-11-20T11:27:18;13.93;;;13.76;;
71183;SDS011;58887;51.980;4.464;2022-11-20T11:29:43;14.56;;;14.27;;
71183;SDS011;58887;51.980;4.464;2022-11-20T11:34:58;14.11;;;13.85;;
71183;SDS011;58887;51.980;4.464;2022-11-20T11:37:32;14.53;;;14.07;;
71183;SDS011;58887;51.980;4.464;2022-11-20T11:40:03;15.33;;;15.03;;
71183;SDS011;58887;51.980;4.464;2022-11-20T11:42:31;15.33;;;15.01;;
71183;SDS011;58887;51.980;4.464;2022-11-20T11:44:58;16.25;;;15.87;;
71183;SDS011;58887;51.980;4.464;2022-11-20T11:47:37;16.46;;;16.17;;
71183;SDS011;58887;51.980;4.464;2022-11-20T11:52:40;17.19;;;16.72;;
71183;SDS011;58887;51.980;4.464;2022-11-20T11:55:31;16.68;;;16.33;;
71183;SDS011;58887;51.980;4.464;2022-11-20T11:58:04;17.53;;;17.05;;
71183;SDS011;58887;51.980;4.464;2022-11-20T12:00:39;18.66;;;18.08;;
71183;SDS011;58887;51.980;4.464;2022-11-20T12:05:48;17.09;;;16.67;;
71183;SDS011;58887;51.980;4.464;2022-11-20T12:08:32;17.31;;;16.77;;
71183;SDS011;58887;51.980;4.464;2022-11-20T12:11:23;17.70;;;16.82;;
71183;SDS011;58887;51.980;4.464;2022-11-20T12:16:36;16.06;;;15.62;;
71183;SDS011;58887;51.980;4.464;2022-11-20T12:19:07;16.96;;;16.51;;
71183;SDS011;58887;51.980;4.464;2022-11-20T12:24:28;17.27;;;16.70;;
71183;SDS011;58887;51.980;4.464;2022-11-20T12:40:44;16.36;;;15.90;;
71183;SDS011;58887;51.980;4.464;2022-11-20T12:43:25;16.66;;;16.15;;
71183;SDS011;58887;51.980;4.464;2022-11-20T12:56:57;17.26;;;16.76;;
71183;SDS011;58887;51.980;4.464;2022-11-20T12:59:46;16.59;;;15.94;;
71183;SDS011;58887;51.980;4.464;2022-11-20T13:07:34;15.74;;;15.32;;
71183;SDS011;58887;51.980;4.464;2022-11-20T13:10:00;17.07;;;16.62;;
71183;SDS011;58887;51.980;4.464;2022-11-20T13:12:35;17.70;;;16.98;;
71183;SDS011;58887;51.980;4.464;2022-11-20T13:17:54;16.20;;;15.85;;
71183;SDS011;58887;51.980;4.464;2022-11-20T13:20:24;17.13;;;16.61;;
71183;SDS011;58887;51.980;4.464;2022-11-20T13:22:51;17.14;;;16.66;;
71183;SDS011;58887;51.980;4.464;2022-11-20T13:25:23;16.60;;;16.03;;
71183;SDS011;58887;51.980;4.464;2022-11-20T13:27:53;16.74;;;16.30;;
71183;SDS011;58887;51.980;4.464;2022-11-20T13:30:21;16.91;;;16.31;;
71183;SDS011;58887;51.980;4.464;2022-11-20T13:32:53;15.92;;;15.51;;
71183;SDS011;58887;51.980;4.464;2022-11-20T13:35:26;15.68;;;15.34;;
71183;SDS011;58887;51.980;4.464;2022-11-20T13:40:38;17.27;;;16.76;;
71183;SDS011;58887;51.980;4.464;2022-11-20T13:43:22;17.18;;;16.63;;
71183;SDS011;58887;51.980;4.464;2022-11-20T13:46:02;16.26;;;15.78;;
71183;SDS011;58887;51.980;4.464;2022-11-20T13:48:43;17.68;;;17.11;;
71183;SDS011;58887;51.980;4.464;2022-11-20T13:51:13;18.08;;;17.43;;
71183;SDS011;58887;51.980;4.464;2022-11-20T13:54:09;17.78;;;17.10;;
71183;SDS011;58887;51.980;4.464;2022-11-20T13:59:40;17.20;;;16.87;;
71183;SDS011;58887;51.980;4.464;2022-11-20T14:02:13;16.91;;;16.35;;
71183;SDS011;58887;51.980;4.464;2022-11-20T14:04:59;17.56;;;17.09;;
71183;SDS011;58887;51.980;4.464;2022-11-20T14:07:32;17.67;;;17.22;;
71183;SDS011;58887;51.980;4.464;2022-11-20T14:10:04;18.15;;;17.68;;
71183;SDS011;58887;51.980;4.464;2022-11-20T14:12:31;18.16;;;17.26;;
71183;SDS011;58887;51.980;4.464;2022-11-20T14:14:58;16.85;;;16.33;;
71183;SDS011;58887;51.980;4.464;2022-11-20T14:17:32;16.86;;;16.26;;
71183;SDS011;58887;51.980;4.464;2022-11-20T14:20:04;17.38;;;16.68;;
71183;SDS011;58887;51.980;4.464;2022-11-20T14:22:37;17.10;;;16.58;;
71183;SDS011;58887;51.980;4.464;2022-11-20T14:27:41;16.96;;;16.42;;
71183;SDS011;58887;51.980;4.464;2022-11-20T14:32:42;16.61;;;15.94;;
71183;SDS011;58887;51.980;4.464;2022-11-20T14:35:13;16.92;;;16.16;;
71183;SDS011;58887;51.980;4.464;2022-11-20T14:37:45;17.96;;;17.22;;
71183;SDS011;58887;51.980;4.464;2022-11-20T14:40:30;17.24;;;16.54;;
71183;SDS011;58887;51.980;4.464;2022-11-20T14:42:58;17.24;;;16.61;;
71183;SDS011;58887;51.980;4.464;2022-11-20T14:45:25;17.03;;;16.31;;
71183;SDS011;58887;51.980;4.464;2022-11-20T14:47:52;16.64;;;16.02;;
71183;SDS011;58887;51.980;4.464;2022-11-20T14:50:25;15.87;;;15.25;;
71183;SDS011;58887;51.980;4.464;2022-11-20T14:52:54;16.38;;;15.80;;
71183;SDS011;58887;51.980;4.464;2022-11-20T14:55:28;16.31;;;15.53;;
71183;SDS011;58887;51.980;4.464;2022-11-20T14:57:54;15.92;;;15.55;;
71183;SDS011;58887;51.980;4.464;2022-11-20T15:00:21;16.19;;;15.67;;
71183;SDS011;58887;51.980;4.464;2022-11-20T15:02:48;16.43;;;15.87;;
71183;SDS011;58887;51.980;4.464;2022-11-20T15:05:15;17.36;;;16.71;;
71183;SDS011;58887;51.980;4.464;2022-11-20T15:07:46;17.32;;;16.72;;
71183;SDS011;58887;51.980;4.464;2022-11-20T15:10:24;17.33;;;16.45;;
71183;SDS011;58887;51.980;4.464;2022-11-20T15:12:52;16.91;;;16.08;;
71183;SDS011;58887;51.980;4.464;2022-11-20T15:15:31;16.11;;;15.60;;
71183;SDS011;58887;51.980;4.464;2022-11-20T15:18:04;17.72;;;16.94;;
71183;SDS011;58887;51.980;4.464;2022-11-20T15:20:31;17.11;;;16.25;;
71183;SDS011;58887;51.980;4.464;2022-11-20T15:22:58;16.15;;;15.62;;
71183;SDS011;58887;51.980;4.464;2022-11-20T15:25:24;15.25;;;14.72;;
71183;SDS011;58887;51.980;4.464;2022-11-20T15:27:56;15.67;;;15.20;;
71183;SDS011;58887;51.980;4.464;2022-11-20T15:30:22;15.32;;;14.82;;
71183;SDS011;58887;51.980;4.464;2022-11-20T15:32:49;14.62;;;14.14;;
71183;SDS011;58887;51.980;4.464;2022-11-20T15:35:14;14.47;;;14.01;;
71183;SDS011;58887;51.980;4.464;2022-11-20T15:37:41;14.57;;;14.14;;
71183;SDS011;58887;51.980;4.464;2022-11-20T15:40:07;14.39;;;13.99;;
71183;SDS011;58887;51.980;4.464;2022-11-20T15:42:34;15.28;;;14.71;;
71183;SDS011;58887;51.980;4.464;2022-11-20T15:45:00;16.81;;;15.83;;
71183;SDS011;58887;51.980;4.464;2022-11-20T15:47:33;15.51;;;14.96;;
71183;SDS011;58887;51.980;4.464;2022-11-20T15:50:00;14.08;;;13.84;;
71183;SDS011;58887;51.980;4.464;2022-11-20T15:52:26;12.93;;;12.71;;
71183;SDS011;58887;51.980;4.464;2022-11-20T15:54:51;14.13;;;13.77;;
71183;SDS011;58887;51.980;4.464;2022-11-20T15:57:17;14.40;;;13.97;;
71183;SDS011;58887;51.980;4.464;2022-11-20T15:59:42;13.61;;;13.22;;
71183;SDS011;58887;51.980;4.464;2022-11-20T16:02:11;14.22;;;13.84;;
71183;SDS011;58887;51.980;4.464;2022-11-20T16:04:38;14.45;;;14.02;;
71183;SDS011;58887;51.980;4.464;2022-11-20T16:07:03;14.36;;;13.98;;
71183;SDS011;58887;51.980;4.464;2022-11-20T16:09:29;14.55;;;14.12;;
71183;SDS011;58887;51.980;4.464;2022-11-20T16:11:55;14.00;;;13.62;;
71183;SDS011;58887;51.980;4.464;2022-11-20T16:14:20;14.32;;;14.02;;
71183;SDS011;58887;51.980;4.464;2022-11-20T16:17:04;15.01;;;14.72;;
71183;SDS011;58887;51.980;4.464;2022-11-20T16:19:30;15.34;;;15.04;;